sensor_id;sensor_type;location;lat;lon;timestamp;pressure;altitude;pressure_sealevel;temperature;humidity
75438;BME280;64015;49.392;15.582;2024-03-23T00:53:55;95099.28;;;8.99;91.94
75438;BME280;64015;49.392;15.582;2024-03-23T00:57:09;95094.56;;;8.96;88.57
75438;BME280;64015;49.392;15.582;2024-03-23T01:00:15;95087.81;;;8.85;86.24
75438;BME280;64015;49.392;15.582;2024-03-23T01:17:00;95062.28;;;8.85;85.73
75438;BME280;64015;49.392;15.582;2024-03-23T01:19:32;95077.38;;;9.09;85.69
75438;BME280;64015;49.392;15.582;2024-03-23T01:22:53;95085.97;;;9.19;83.27
75438;BME280;64015;49.392;15.582;2024-03-23T01:25:34;95061.50;;;9.19;84.26
75438;BME280;64015;49.392;15.582;2024-03-23T01:32:10;95048.09;;;9.20;85.54
75438;BME280;64015;49.392;15.582;2024-03-23T01:35:10;95067.72;;;9.33;84.77
75438;BME280;64015;49.392;15.582;2024-03-23T01:38:41;95042.03;;;9.20;87.55
75438;BME280;64015;49.392;15.582;2024-03-23T01:41:33;95034.72;;;9.17;87.91
75438;BME280;64015;49.392;15.582;2024-03-23T01:44:39;95052.03;;;9.23;91.56
75438;BME280;64015;49.392;15.582;2024-03-23T01:51:15;95032.19;;;9.02;93.18
75438;BME280;64015;49.392;15.582;2024-03-23T02:07:27;95007.50;;;8.97;86.38
75438;BME280;64015;49.392;15.582;2024-03-23T02:10:45;95010.31;;;9.06;87.75
75438;BME280;64015;49.392;15.582;2024-03-23T02:17:34;95011.34;;;9.10;86.08
75438;BME280;64015;49.392;15.582;2024-03-23T02:20:01;95002.16;;;9.08;85.80
75438;BME280;64015;49.392;15.582;2024-03-23T02:22:38;95012.13;;;9.11;85.69
75438;BME280;64015;49.392;15.582;2024-03-23T02:25:14;95001.06;;;9.14;86.16
75438;BME280;64015;49.392;15.582;2024-03-23T02:27:44;94978.97;;;9.10;86.06
75438;BME280;64015;49.392;15.582;2024-03-23T02:30:32;95005.16;;;9.25;87.43
75438;BME280;64015;49.392;15.582;2024-03-23T02:34:00;95003.31;;;9.25;87.63
75438;BME280;64015;49.392;15.582;2024-03-23T02:36:57;94983.84;;;9.26;87.00
75438;BME280;64015;49.392;15.582;2024-03-23T02:39:41;94962.41;;;9.09;88.13
75438;BME280;64015;49.392;15.582;2024-03-23T02:42:27;94953.28;;;9.02;88.62
75438;BME280;64015;49.392;15.582;2024-03-23T03:02:06;94961.69;;;8.70;92.97
75438;BME280;64015;49.392;15.582;2024-03-23T03:11:31;94939.19;;;8.53;95.03
75438;BME280;64015;49.392;15.582;2024-03-23T03:18:36;94953.63;;;8.56;96.06
75438;BME280;64015;49.392;15.582;2024-03-23T03:21:53;94958.41;;;8.49;95.50
75438;BME280;64015;49.392;15.582;2024-03-23T03:32:00;94941.06;;;8.48;95.33
75438;BME280;64015;49.392;15.582;2024-03-23T03:35:28;94927.75;;;8.34;95.77
75438;BME280;64015;49.392;15.582;2024-03-23T03:49:24;94930.59;;;7.94;100.00
75438;BME280;64015;49.392;15.582;2024-03-23T03:52:02;94911.78;;;7.71;100.00
75438;BME280;64015;49.392;15.582;2024-03-23T03:54:42;94913.13;;;7.69;100.00
75438;BME280;64015;49.392;15.582;2024-03-23T04:01:31;94928.44;;;7.46;100.00
75438;BME280;64015;49.392;15.582;2024-03-23T04:11:26;94890.69;;;7.37;100.00
75438;BME280;64015;49.392;15.582;2024-03-23T04:13:52;94896.72;;;7.38;100.00
75438;BME280;64015;49.392;15.582;2024-03-23T04:16:29;94895.41;;;7.35;100.00
75438;BME280;64015;49.392;15.582;2024-03-23T04:18:56;94864.78;;;7.21;100.00
75438;BME280;64015;49.392;15.582;2024-03-23T04:21:35;94859.53;;;7.16;100.00
75438;BME280;64015;49.392;15.582;2024-03-23T04:24:06;94865.56;;;7.16;100.00
75438;BME280;64015;49.392;15.582;2024-03-23T04:26:41;94862.94;;;7.16;100.00
75438;BME280;64015;49.392;15.582;2024-03-23T04:29:10;94855.09;;;7.11;100.00
75438;BME280;64015;49.392;15.582;2024-03-23T04:31:36;94859.56;;;7.10;100.00
75438;BME280;64015;49.392;15.582;2024-03-23T04:34:02;94858.78;;;7.10;100.00
75438;BME280;64015;49.392;15.582;2024-03-23T04:36:28;94859.78;;;7.14;100.00
75438;BME280;64015;49.392;15.582;2024-03-23T04:38:53;94861.38;;;7.15;100.00
75438;BME280;64015;49.392;15.582;2024-03-23T04:41:19;94840.97;;;7.02;100.00
75438;BME280;64015;49.392;15.582;2024-03-23T04:43:45;94850.13;;;7.04;100.00
75438;BME280;64015;49.392;15.582;2024-03-23T04:46:11;94844.94;;;6.94;100.00
75438;BME280;64015;49.392;15.582;2024-03-23T04:48:37;94843.59;;;6.87;100.00
75438;BME280;64015;49.392;15.582;2024-03-23T04:51:03;94854.09;;;6.87;100.00
75438;BME280;64015;49.392;15.582;2024-03-23T04:53:29;94837.88;;;6.69;100.00
75438;BME280;64015;49.392;15.582;2024-03-23T04:55:58;94835.81;;;6.41;100.00
75438;BME280;64015;49.392;15.582;2024-03-23T04:58:25;94849.19;;;6.45;100.00
75438;BME280;64015;49.392;15.582;2024-03-23T05:00:55;94843.69;;;6.31;100.00
75438;BME280;64015;49.392;15.582;2024-03-23T05:03:21;94852.06;;;6.33;100.00
75438;BME280;64015;49.392;15.582;2024-03-23T05:05:49;94851.81;;;6.14;100.00
75438;BME280;64015;49.392;15.582;2024-03-23T05:08:18;94851.28;;;6.07;100.00
75438;BME280;64015;49.392;15.582;2024-03-23T05:10:44;94848.91;;;5.95;100.00
75438;BME280;64015;49.392;15.582;2024-03-23T05:13:10;94846.03;;;5.92;100.00
75438;BME280;64015;49.392;15.582;2024-03-23T05:15:36;94850.97;;;5.83;100.00
75438;BME280;64015;49.392;15.582;2024-03-23T05:18:02;94859.88;;;5.82;100.00
75438;BME280;64015;49.392;15.582;2024-03-23T05:20:27;94850.94;;;5.73;100.00
75438;BME280;64015;49.392;15.582;2024-03-23T05:25:50;94830.53;;;5.70;100.00
75438;BME280;64015;49.392;15.582;2024-03-23T05:32:01;94863.03;;;5.94;100.00
75438;BME280;64015;49.392;15.582;2024-03-23T05:34:30;94830.06;;;5.88;100.00
75438;BME280;64015;49.392;15.582;2024-03-23T05:36:56;94841.31;;;6.04;100.00
75438;BME280;64015;49.392;15.582;2024-03-23T05:39:24;94840.53;;;6.14;100.00
75438;BME280;64015;49.392;15.582;2024-03-23T05:41:53;94846.84;;;6.33;100.00
75438;BME280;64015;49.392;15.582;2024-03-23T05:44:19;94834.78;;;6.47;100.00
75438;BME280;64015;49.392;15.582;2024-03-23T05:46:45;94816.19;;;6.49;100.00
75438;BME280;64015;49.392;15.582;2024-03-23T05:49:15;94808.53;;;6.67;100.00
75438;BME280;64015;49.392;15.582;2024-03-23T05:51:42;94809.00;;;6.90;100.00
75438;BME280;64015;49.392;15.582;2024-03-23T05:54:08;94817.81;;;7.19;100.00
75438;BME280;64015;49.392;15.582;2024-03-23T05:56:34;94808.88;;;7.30;100.00
75438;BME280;64015;49.392;15.582;2024-03-23T05:59:00;94809.88;;;7.39;100.00
75438;BME280;64015;49.392;15.582;2024-03-23T06:01:41;94816.09;;;7.54;100.00
75438;BME280;64015;49.392;15.582;2024-03-23T06:04:07;94816.28;;;7.67;100.00
75438;BME280;64015;49.392;15.582;2024-03-23T06:06:35;94796.06;;;7.68;100.00
75438;BME280;64015;49.392;15.582;2024-03-23T06:09:13;94790.78;;;7.73;100.00
75438;BME280;64015;49.392;15.582;2024-03-23T06:11:39;94798.31;;;7.84;100.00
75438;BME280;64015;49.392;15.582;2024-03-23T06:14:05;94796.91;;;7.97;100.00
75438;BME280;64015;49.392;15.582;2024-03-23T06:16:31;94803.91;;;8.12;100.00
75438;BME280;64015;49.392;15.582;2024-03-23T06:18:57;94790.69;;;8.22;100.00
75438;BME280;64015;49.392;15.582;2024-03-23T06:21:24;94788.72;;;8.38;100.00
75438;BME280;64015;49.392;15.582;2024-03-23T06:23:54;94791.63;;;8.65;100.00
75438;BME280;64015;49.392;15.582;2024-03-23T06:26:20;94790.56;;;8.90;100.00
75438;BME280;64015;49.392;15.582;2024-03-23T06:28:47;94773.50;;;9.11;100.00
75438;BME280;64015;49.392;15.582;2024-03-23T06:33:42;94785.94;;;9.86;100.00
75438;BME280;64015;49.392;15.582;2024-03-23T06:36:09;94764.13;;;9.99;99.92
75438;BME280;64015;49.392;15.582;2024-03-23T06:38:50;94762.72;;;10.39;97.45
75438;BME280;64015;49.392;15.582;2024-03-23T06:41:23;94771.38;;;10.72;95.95
75438;BME280;64015;49.392;15.582;2024-03-23T06:43:48;94750.28;;;10.99;95.30
75438;BME280;64015;49.392;15.582;2024-03-23T06:46:14;94738.78;;;11.31;91.14
75438;BME280;64015;49.392;15.582;2024-03-23T06:48:40;94730.06;;;11.58;88.42
75438;BME280;64015;49.392;15.582;2024-03-23T06:51:06;94734.41;;;11.76;86.99
75438;BME280;64015;49.392;15.582;2024-03-23T06:53:32;94717.47;;;11.77;89.58
75438;BME280;64015;49.392;15.582;2024-03-23T06:56:07;94738.44;;;11.60;92.46
75438;BME280;64015;49.392;15.582;2024-03-23T06:58:33;94701.50;;;11.10;93.44
75438;BME280;64015;49.392;15.582;2024-03-23T07:00:59;94701.72;;;11.00;95.56
75438;BME280;64015;49.392;15.582;2024-03-23T07:03:28;94683.25;;;10.87;95.04
75438;BME280;64015;49.392;15.582;2024-03-23T07:05:57;94684.13;;;10.68;95.82
75438;BME280;64015;49.392;15.582;2024-03-23T07:08:23;94699.88;;;10.73;95.80
75438;BME280;64015;49.392;15.582;2024-03-23T07:10:49;94696.34;;;10.64;96.13
75438;BME280;64015;49.392;15.582;2024-03-23T07:13:15;94707.66;;;10.78;95.96
75438;BME280;64015;49.392;15.582;2024-03-23T07:15:41;94707.75;;;11.01;95.36
75438;BME280;64015;49.392;15.582;2024-03-23T07:18:06;94721.06;;;11.45;93.85
75438;BME280;64015;49.392;15.582;2024-03-23T07:20:32;94700.50;;;11.56;90.82
75438;BME280;64015;49.392;15.582;2024-03-23T07:22:58;94704.34;;;11.86;87.94
75438;BME280;64015;49.392;15.582;2024-03-23T07:25:24;94687.91;;;11.98;85.08
75438;BME280;64015;49.392;15.582;2024-03-23T07:28:18;94712.09;;;12.36;83.89
75438;BME280;64015;49.392;15.582;2024-03-23T07:33:31;94695.09;;;12.59;80.87
75438;BME280;64015;49.392;15.582;2024-03-23T07:36:16;94682.72;;;12.77;78.63
75438;BME280;64015;49.392;15.582;2024-03-23T07:38:45;94698.06;;;13.05;76.37
75438;BME280;64015;49.392;15.582;2024-03-23T07:41:15;94689.09;;;13.32;73.89
75438;BME280;64015;49.392;15.582;2024-03-23T07:44:03;94672.25;;;13.45;70.51
75438;BME280;64015;49.392;15.582;2024-03-23T07:46:29;94679.59;;;13.49;68.06
75438;BME280;64015;49.392;15.582;2024-03-23T07:48:55;94674.59;;;13.38;66.46
75438;BME280;64015;49.392;15.582;2024-03-23T07:51:22;94659.47;;;13.39;66.04
75438;BME280;64015;49.392;15.582;2024-03-23T07:53:48;94641.72;;;13.22;67.74
75438;BME280;64015;49.392;15.582;2024-03-23T07:56:15;94638.91;;;13.36;67.40
75438;BME280;64015;49.392;15.582;2024-03-23T07:58:42;94653.09;;;13.31;67.81
75438;BME280;64015;49.392;15.582;2024-03-23T08:01:09;94623.19;;;13.22;69.64
75438;BME280;64015;49.392;15.582;2024-03-23T08:03:40;94625.97;;;13.17;74.17
75438;BME280;64015;49.392;15.582;2024-03-23T08:06:17;94612.41;;;13.19;73.96
75438;BME280;64015;49.392;15.582;2024-03-23T08:08:56;94609.00;;;13.18;71.58
75438;BME280;64015;49.392;15.582;2024-03-23T08:11:39;94623.66;;;13.33;71.55
75438;BME280;64015;49.392;15.582;2024-03-23T08:14:04;94636.88;;;13.67;71.82
75438;BME280;64015;49.392;15.582;2024-03-23T08:16:31;94619.06;;;13.85;69.12
75438;BME280;64015;49.392;15.582;2024-03-23T08:18:57;94601.28;;;13.94;67.55
75438;BME280;64015;49.392;15.582;2024-03-23T08:21:23;94594.06;;;14.03;66.19
75438;BME280;64015;49.392;15.582;2024-03-23T08:23:54;94570.53;;;14.02;65.58
75438;BME280;64015;49.392;15.582;2024-03-23T08:26:23;94556.63;;;14.05;65.61
75438;BME280;64015;49.392;15.582;2024-03-23T08:28:48;94581.50;;;14.30;65.55
75438;BME280;64015;49.392;15.582;2024-03-23T08:31:14;94590.66;;;14.49;62.60
75438;BME280;64015;49.392;15.582;2024-03-23T08:33:47;94588.34;;;14.69;60.09
75438;BME280;64015;49.392;15.582;2024-03-23T08:36:13;94579.44;;;14.73;60.13
75438;BME280;64015;49.392;15.582;2024-03-23T08:38:48;94588.34;;;14.98;59.49
75438;BME280;64015;49.392;15.582;2024-03-23T08:41:17;94579.72;;;15.22;59.23
75438;BME280;64015;49.392;15.582;2024-03-23T08:43:43;94587.53;;;15.39;57.88
75438;BME280;64015;49.392;15.582;2024-03-23T08:46:14;94582.22;;;15.60;57.72
75438;BME280;64015;49.392;15.582;2024-03-23T08:48:42;94567.06;;;15.93;55.44
75438;BME280;64015;49.392;15.582;2024-03-23T08:51:12;94553.09;;;16.09;55.11
75438;BME280;64015;49.392;15.582;2024-03-23T09:03:29;94530.44;;;15.78;56.57
75438;BME280;64015;49.392;15.582;2024-03-23T09:06:24;94539.28;;;15.37;57.57
75438;BME280;64015;49.392;15.582;2024-03-23T09:08:50;94529.28;;;15.55;58.76
75438;BME280;64015;49.392;15.582;2024-03-23T09:11:16;94520.38;;;15.84;58.40
75438;BME280;64015;49.392;15.582;2024-03-23T09:13:50;94495.09;;;15.78;58.03
75438;BME280;64015;49.392;15.582;2024-03-23T09:16:16;94498.75;;;15.73;57.95
75438;BME280;64015;49.392;15.582;2024-03-23T09:18:42;94504.22;;;16.01;57.78
75438;BME280;64015;49.392;15.582;2024-03-23T09:21:17;94521.63;;;16.23;57.42
75438;BME280;64015;49.392;15.582;2024-03-23T09:24:00;94489.34;;;16.36;56.86
75438;BME280;64015;49.392;15.582;2024-03-23T09:26:54;94505.00;;;16.38;56.19
75438;BME280;64015;49.392;15.582;2024-03-23T09:29:20;94488.50;;;16.20;55.06
75438;BME280;64015;49.392;15.582;2024-03-23T09:31:45;94496.91;;;16.10;55.39
75438;BME280;64015;49.392;15.582;2024-03-23T09:34:11;94473.94;;;16.05;55.33
75438;BME280;64015;49.392;15.582;2024-03-23T09:36:37;94475.72;;;16.26;54.19
75438;BME280;64015;49.392;15.582;2024-03-23T09:46:40;94459.06;;;16.53;52.86
75438;BME280;64015;49.392;15.582;2024-03-23T09:49:09;94465.34;;;16.61;51.99
75438;BME280;64015;49.392;15.582;2024-03-23T09:51:36;94467.31;;;16.88;52.51
75438;BME280;64015;49.392;15.582;2024-03-23T09:54:05;94458.63;;;17.03;51.82
75438;BME280;64015;49.392;15.582;2024-03-23T09:56:39;94443.78;;;16.90;50.72
75438;BME280;64015;49.392;15.582;2024-03-23T09:59:05;94461.16;;;17.00;50.82
75438;BME280;64015;49.392;15.582;2024-03-23T10:01:32;94432.78;;;17.20;51.52
75438;BME280;64015;49.392;15.582;2024-03-23T10:03:58;94440.63;;;17.44;49.34
75438;BME280;64015;49.392;15.582;2024-03-23T10:06:24;94439.81;;;17.71;49.94
75438;BME280;64015;49.392;15.582;2024-03-23T10:08:53;94429.97;;;17.44;50.76
75438;BME280;64015;49.392;15.582;2024-03-23T10:11:20;94425.13;;;17.77;49.86
75438;BME280;64015;49.392;15.582;2024-03-23T10:13:47;94448.16;;;18.01;47.93
75438;BME280;64015;49.392;15.582;2024-03-23T10:16:21;94436.94;;;18.27;46.08
75438;BME280;64015;49.392;15.582;2024-03-23T10:18:47;94403.00;;;17.93;45.98
75438;BME280;64015;49.392;15.582;2024-03-23T10:21:20;94415.16;;;18.25;45.98
75438;BME280;64015;49.392;15.582;2024-03-23T10:23:45;94403.72;;;18.24;43.80
75438;BME280;64015;49.392;15.582;2024-03-23T10:26:19;94433.72;;;18.37;44.51
75438;BME280;64015;49.392;15.582;2024-03-23T10:28:58;94415.00;;;17.24;46.02
75438;BME280;64015;49.392;15.582;2024-03-23T10:31:31;94404.94;;;16.89;46.89
75438;BME280;64015;49.392;15.582;2024-03-23T10:33:57;94437.59;;;16.86;47.69
75438;BME280;64015;49.392;15.582;2024-03-23T10:36:24;94439.88;;;16.48;48.95
75438;BME280;64015;49.392;15.582;2024-03-23T10:38:52;94440.69;;;16.36;49.61
75438;BME280;64015;49.392;15.582;2024-03-23T10:41:18;94411.22;;;16.17;51.34
75438;BME280;64015;49.392;15.582;2024-03-23T10:44:01;94414.66;;;16.05;52.14
75438;BME280;64015;49.392;15.582;2024-03-23T10:46:27;94432.63;;;15.72;52.44
75438;BME280;64015;49.392;15.582;2024-03-23T10:48:53;94446.22;;;15.58;54.45
75438;BME280;64015;49.392;15.582;2024-03-23T10:51:20;94474.75;;;13.65;80.26
75438;BME280;64015;49.392;15.582;2024-03-23T10:53:46;94524.13;;;13.23;86.65
75438;BME280;64015;49.392;15.582;2024-03-23T10:56:16;94678.13;;;11.04;100.00
75438;BME280;64015;49.392;15.582;2024-03-23T10:58:48;62277.91;;;-142.60;100.00
75438;BME280;64015;49.392;15.582;2024-03-23T11:01:15;62277.91;;;-142.60;100.00
75438;BME280;64015;49.392;15.582;2024-03-23T11:03:45;62277.91;;;-142.60;100.00
75438;BME280;64015;49.392;15.582;2024-03-23T11:06:35;62277.91;;;-142.60;100.00
75438;BME280;64015;49.392;15.582;2024-03-23T11:09:01;62277.91;;;-142.60;100.00
75438;BME280;64015;49.392;15.582;2024-03-23T11:11:27;62277.91;;;-142.60;100.00
75438;BME280;64015;49.392;15.582;2024-03-23T11:13:57;62277.91;;;-142.60;100.00
75438;BME280;64015;49.392;15.582;2024-03-23T11:16:28;62277.91;;;-142.60;100.00
75438;BME280;64015;49.392;15.582;2024-03-23T11:19:33;62277.91;;;-142.60;100.00
75438;BME280;64015;49.392;15.582;2024-03-23T11:22:00;62277.91;;;-142.60;100.00
75438;BME280;64015;49.392;15.582;2024-03-23T11:24:26;62277.91;;;-142.60;100.00
75438;BME280;64015;49.392;15.582;2024-03-23T11:26:52;62277.91;;;-142.60;100.00
75438;BME280;64015;49.392;15.582;2024-03-23T11:29:19;62277.91;;;-142.60;100.00
75438;BME280;64015;49.392;15.582;2024-03-23T11:31:49;62277.91;;;-142.60;100.00
75438;BME280;64015;49.392;15.582;2024-03-23T11:34:15;62277.91;;;-142.60;100.00
75438;BME280;64015;49.392;15.582;2024-03-23T11:36:44;62277.91;;;-142.60;100.00
75438;BME280;64015;49.392;15.582;2024-03-23T11:39:19;62277.91;;;-142.60;100.00
75438;BME280;64015;49.392;15.582;2024-03-23T11:41:50;62277.91;;;-142.60;100.00
75438;BME280;64015;49.392;15.582;2024-03-23T11:44:19;62277.91;;;-142.60;100.00
75438;BME280;64015;49.392;15.582;2024-03-23T11:46:46;62277.91;;;-142.60;100.00
75438;BME280;64015;49.392;15.582;2024-03-23T11:49:26;62277.91;;;-142.60;100.00
75438;BME280;64015;49.392;15.582;2024-03-23T11:51:54;62277.91;;;-142.60;100.00
75438;BME280;64015;49.392;15.582;2024-03-23T11:54:26;62277.91;;;-142.60;100.00
75438;BME280;64015;49.392;15.582;2024-03-23T11:56:59;62277.91;;;-142.60;100.00
75438;BME280;64015;49.392;15.582;2024-03-23T11:59:38;62277.91;;;-142.60;100.00
75438;BME280;64015;49.392;15.582;2024-03-23T12:04:33;62277.91;;;-142.60;100.00
75438;BME280;64015;49.392;15.582;2024-03-23T12:07:18;62277.91;;;-142.60;100.00
75438;BME280;64015;49.392;15.582;2024-03-23T12:09:46;62277.91;;;-142.60;100.00
75438;BME280;64015;49.392;15.582;2024-03-23T12:12:16;62277.91;;;-142.60;100.00
75438;BME280;64015;49.392;15.582;2024-03-23T12:15:01;62277.91;;;-142.60;100.00
75438;BME280;64015;49.392;15.582;2024-03-23T12:17:27;62277.91;;;-142.60;100.00
75438;BME280;64015;49.392;15.582;2024-03-23T12:19:53;62277.91;;;-142.60;100.00
75438;BME280;64015;49.392;15.582;2024-03-23T12:22:22;62277.91;;;-142.60;100.00
75438;BME280;64015;49.392;15.582;2024-03-23T12:24:48;62277.91;;;-142.60;100.00
75438;BME280;64015;49.392;15.582;2024-03-23T12:27:14;62277.91;;;-142.60;100.00
75438;BME280;64015;49.392;15.582;2024-03-23T12:29:41;62277.91;;;-142.60;100.00
75438;BME280;64015;49.392;15.582;2024-03-23T12:32:14;62277.91;;;-142.60;100.00
75438;BME280;64015;49.392;15.582;2024-03-23T12:34:52;62277.91;;;-142.60;100.00
75438;BME280;64015;49.392;15.582;2024-03-23T12:37:18;62277.91;;;-142.60;100.00
75438;BME280;64015;49.392;15.582;2024-03-23T12:39:45;62277.91;;;-142.60;100.00
75438;BME280;64015;49.392;15.582;2024-03-23T12:42:23;62277.91;;;-142.60;100.00
75438;BME280;64015;49.392;15.582;2024-03-23T12:44:51;62277.91;;;-142.60;100.00
75438;BME280;64015;49.392;15.582;2024-03-23T12:47:18;62277.91;;;-142.60;100.00
75438;BME280;64015;49.392;15.582;2024-03-23T12:49:43;62277.91;;;-142.60;100.00
75438;BME280;64015;49.392;15.582;2024-03-23T12:52:09;62277.91;;;-142.60;100.00
75438;BME280;64015;49.392;15.582;2024-03-23T12:54:35;62277.91;;;-142.60;100.00
75438;BME280;64015;49.392;15.582;2024-03-23T12:57:01;62277.91;;;-142.60;100.00
75438;BME280;64015;49.392;15.582;2024-03-23T12:59:28;62277.91;;;-142.60;100.00
75438;BME280;64015;49.392;15.582;2024-03-23T13:01:54;62277.91;;;-142.60;100.00
75438;BME280;64015;49.392;15.582;2024-03-23T13:04:33;62277.91;;;-142.60;100.00
75438;BME280;64015;49.392;15.582;2024-03-23T13:06:58;62277.91;;;-142.60;100.00
75438;BME280;64015;49.392;15.582;2024-03-23T13:09:24;62277.91;;;-142.60;100.00
75438;BME280;64015;49.392;15.582;2024-03-23T13:11:50;62277.91;;;-142.60;100.00
75438;BME280;64015;49.392;15.582;2024-03-23T13:14:19;62277.91;;;-142.60;100.00
75438;BME280;64015;49.392;15.582;2024-03-23T13:16:46;62277.91;;;-142.60;100.00
75438;BME280;64015;49.392;15.582;2024-03-23T13:19:18;62277.91;;;-142.60;100.00
75438;BME280;64015;49.392;15.582;2024-03-23T13:21:45;62277.91;;;-142.60;100.00
75438;BME280;64015;49.392;15.582;2024-03-23T13:24:10;62277.91;;;-142.60;100.00
75438;BME280;64015;49.392;15.582;2024-03-23T13:26:36;62277.91;;;-142.60;100.00
75438;BME280;64015;49.392;15.582;2024-03-23T13:29:02;62277.91;;;-142.60;100.00
75438;BME280;64015;49.392;15.582;2024-03-23T13:31:28;62277.91;;;-142.60;100.00
75438;BME280;64015;49.392;15.582;2024-03-23T13:33:54;62277.91;;;-142.60;100.00
75438;BME280;64015;49.392;15.582;2024-03-23T13:36:25;62277.91;;;-142.60;100.00
75438;BME280;64015;49.392;15.582;2024-03-23T13:38:51;62277.91;;;-142.60;100.00
75438;BME280;64015;49.392;15.582;2024-03-23T13:41:17;62277.91;;;-142.60;100.00
75438;BME280;64015;49.392;15.582;2024-03-23T13:43:43;62277.91;;;-142.60;100.00
75438;BME280;64015;49.392;15.582;2024-03-23T13:46:09;62277.91;;;-142.60;100.00
75438;BME280;64015;49.392;15.582;2024-03-23T13:48:34;62277.91;;;-142.60;100.00
75438;BME280;64015;49.392;15.582;2024-03-23T13:51:04;62277.91;;;-142.60;100.00
75438;BME280;64015;49.392;15.582;2024-03-23T13:53:31;62277.91;;;-142.60;100.00
75438;BME280;64015;49.392;15.582;2024-03-23T13:55:58;62277.91;;;-142.60;100.00
75438;BME280;64015;49.392;15.582;2024-03-23T13:58:24;62277.91;;;-142.60;100.00
75438;BME280;64015;49.392;15.582;2024-03-23T14:00:53;62277.91;;;-142.60;100.00
75438;BME280;64015;49.392;15.582;2024-03-23T14:03:19;62277.91;;;-142.60;100.00
75438;BME280;64015;49.392;15.582;2024-03-23T14:05:45;62277.91;;;-142.60;100.00
75438;BME280;64015;49.392;15.582;2024-03-23T14:08:49;62277.91;;;-142.60;100.00
75438;BME280;64015;49.392;15.582;2024-03-23T14:11:44;62277.91;;;-142.60;100.00
75438;BME280;64015;49.392;15.582;2024-03-23T14:14:10;62277.91;;;-142.60;100.00
75438;BME280;64015;49.392;15.582;2024-03-23T14:16:36;62277.91;;;-142.60;100.00
75438;BME280;64015;49.392;15.582;2024-03-23T14:19:21;62277.91;;;-142.60;100.00
75438;BME280;64015;49.392;15.582;2024-03-23T14:21:50;62277.91;;;-142.60;100.00
75438;BME280;64015;49.392;15.582;2024-03-23T14:24:15;62277.91;;;-142.60;100.00
75438;BME280;64015;49.392;15.582;2024-03-23T14:26:42;62277.91;;;-142.60;100.00
75438;BME280;64015;49.392;15.582;2024-03-23T14:29:20;62277.91;;;-142.60;100.00
75438;BME280;64015;49.392;15.582;2024-03-23T14:31:58;62277.91;;;-142.60;100.00
75438;BME280;64015;49.392;15.582;2024-03-23T14:34:26;62277.91;;;-142.60;100.00
75438;BME280;64015;49.392;15.582;2024-03-23T14:36:54;62277.91;;;-142.60;100.00
75438;BME280;64015;49.392;15.582;2024-03-23T14:39:23;62277.91;;;-142.60;100.00
75438;BME280;64015;49.392;15.582;2024-03-23T14:52:48;62277.91;;;-142.60;100.00
75438;BME280;64015;49.392;15.582;2024-03-23T14:55:14;62277.91;;;-142.60;100.00
75438;BME280;64015;49.392;15.582;2024-03-23T14:57:40;62277.91;;;-142.60;100.00
75438;BME280;64015;49.392;15.582;2024-03-23T15:00:07;62277.91;;;-142.60;100.00
75438;BME280;64015;49.392;15.582;2024-03-23T15:02:34;62277.91;;;-142.60;100.00
75438;BME280;64015;49.392;15.582;2024-03-23T15:05:01;62277.91;;;-142.60;100.00
75438;BME280;64015;49.392;15.582;2024-03-23T15:07:26;62277.91;;;-142.60;100.00
75438;BME280;64015;49.392;15.582;2024-03-23T15:09:54;62277.91;;;-142.60;100.00
75438;BME280;64015;49.392;15.582;2024-03-23T15:12:19;62277.91;;;-142.60;100.00
75438;BME280;64015;49.392;15.582;2024-03-23T15:14:47;62277.91;;;-142.60;100.00
75438;BME280;64015;49.392;15.582;2024-03-23T15:17:13;62277.91;;;-142.60;100.00
75438;BME280;64015;49.392;15.582;2024-03-23T15:19:39;62277.91;;;-142.60;100.00
75438;BME280;64015;49.392;15.582;2024-03-23T15:22:07;62277.91;;;-142.60;100.00
75438;BME280;64015;49.392;15.582;2024-03-23T15:24:34;62277.91;;;-142.60;100.00
75438;BME280;64015;49.392;15.582;2024-03-23T15:27:01;62277.91;;;-142.60;100.00
75438;BME280;64015;49.392;15.582;2024-03-23T15:29:30;62277.91;;;-142.60;100.00
75438;BME280;64015;49.392;15.582;2024-03-23T15:31:56;62277.91;;;-142.60;100.00
75438;BME280;64015;49.392;15.582;2024-03-23T15:34:22;62277.91;;;-142.60;100.00
75438;BME280;64015;49.392;15.582;2024-03-23T15:36:57;62277.91;;;-142.60;100.00
75438;BME280;64015;49.392;15.582;2024-03-23T15:42:24;62277.91;;;-142.60;100.00
75438;BME280;64015;49.392;15.582;2024-03-23T15:44:51;62277.91;;;-142.60;100.00
75438;BME280;64015;49.392;15.582;2024-03-23T15:47:17;62277.91;;;-142.60;100.00
75438;BME280;64015;49.392;15.582;2024-03-23T15:49:43;62277.91;;;-142.60;100.00
75438;BME280;64015;49.392;15.582;2024-03-23T15:52:20;62277.91;;;-142.60;100.00
75438;BME280;64015;49.392;15.582;2024-03-23T15:54:46;62277.91;;;-142.60;100.00
75438;BME280;64015;49.392;15.582;2024-03-23T15:57:12;62277.91;;;-142.60;100.00
75438;BME280;64015;49.392;15.582;2024-03-23T15:59:47;62277.91;;;-142.60;100.00
75438;BME280;64015;49.392;15.582;2024-03-23T16:02:13;62277.91;;;-142.60;100.00
75438;BME280;64015;49.392;15.582;2024-03-23T16:04:39;62277.91;;;-142.60;100.00
75438;BME280;64015;49.392;15.582;2024-03-23T16:07:05;62277.91;;;-142.60;100.00
75438;BME280;64015;49.392;15.582;2024-03-23T16:09:54;62277.91;;;-142.60;100.00
75438;BME280;64015;49.392;15.582;2024-03-23T16:12:28;62277.91;;;-142.60;100.00
75438;BME280;64015;49.392;15.582;2024-03-23T16:14:55;62277.91;;;-142.60;100.00
75438;BME280;64015;49.392;15.582;2024-03-23T16:17:21;62277.91;;;-142.60;100.00